Airfield :
LOGIN :

Register | Disclaimer

   EN    FR    IT 

 










Legend :    VFR   Marginal VFR   IFR   Intensive IFR   Very Intensive IFR
Visi :
Ceiling :
>= 8 km
>= 3000ft
5 to 8 km
1000 to 3000 ft
1500m to 5 km
500 to 1000 ft
800 to 1500m
200 to 500 ft
< 800m
< 200 ft
Symbols :   Thunderstorms  Fog  Heavy snow  Heavy precipitations  Wind > 20 kt
SIGMETs :     Misc.  Thunderstorms  Icing  Turbulence  Mountain Waves  Volcanic Ashes







- Airport Elevation : 14 ft
- IATA code : BRE


EDDW - Bremen Neuenland

CURRENT METAR :
  • 241020Z 24014KT 9999 BKN014 11/08 Q1013 TEMPO 25015G25KT

EXPIRED METARs :
  • 240950Z 24015KT 9999 BKN015 11/08 Q1014 TEMPO 25015G25KT BKN012
  • 240920Z 24015KT 9999 BKN015 11/08 Q1013 TEMPO 25015G25KT BKN012
  • 240850Z 24015KT 9999 BKN016 11/08 Q1013 TEMPO 25015G25KT
  • 240820Z 24014KT 9999 BKN016 11/08 Q1013 TEMPO 25015G25KT
  • 240750Z 23014KT 9999 BKN016 10/07 Q1013 TEMPO 25015G25KT

TAF TAF EDDW
Valid from the 24 at 06:00 until the 25 at 06:00 UTC


240500Z 2406/2506 21012KT 9999 BKN035
TEMPO 2406/2411 BKN012
PROB30
TEMPO 2406/2411 BKN008
BECMG 2409/2411 27015G25KT
BECMG 2412/2415 27010KT
BECMG 2415/2418 23005KT
BECMG 2420/2423 15005KT BKN012
TEMPO 2422/2505 3500 RA BKN007
BECMG 2501/2503 23010KT
BECMG 2503/2506 24015G30KT SCT012 BKN030
No reported NOTAMs for that airfield.



MET'MAP, your aeronautical weather chart ! - Copyright ORBIFLY December 2007 - Disclaimer

ORBIFLY MET'MAP TEAM :

Programming & Development : Alexandra Zaïnal
Concept & Development : Baudouin d'Aumeries
Co-Development & Prog : Marc-Olivier Méhu
Technical & hardware support : Manuel Goepfert

Contact : metmap@orbifly.com




SOURCES & CREDITS :

   NOAA